sensor_id;sensor_type;location;lat;lon;timestamp;P1;durP1;ratioP1;P2;durP2;ratioP2
74124;SDS011;62475;52.192;5.396;2023-04-21T00:01:58;18.58;;;10.88;;
74124;SDS011;62475;52.192;5.396;2023-04-21T00:04:23;19.00;;;10.23;;
74124;SDS011;62475;52.192;5.396;2023-04-21T00:06:49;22.88;;;11.90;;
74124;SDS011;62475;52.192;5.396;2023-04-21T00:09:17;24.40;;;11.35;;
74124;SDS011;62475;52.192;5.396;2023-04-21T00:11:42;23.17;;;11.55;;
74124;SDS011;62475;52.192;5.396;2023-04-21T00:14:07;24.55;;;11.10;;
74124;SDS011;62475;52.192;5.396;2023-04-21T00:16:33;22.23;;;11.32;;
74124;SDS011;62475;52.192;5.396;2023-04-21T00:18:58;25.77;;;11.77;;
74124;SDS011;62475;52.192;5.396;2023-04-21T00:21:24;27.55;;;13.95;;
74124;SDS011;62475;52.192;5.396;2023-04-21T00:23:49;19.98;;;10.38;;
74124;SDS011;62475;52.192;5.396;2023-04-21T00:26:16;23.90;;;12.45;;
74124;SDS011;62475;52.192;5.396;2023-04-21T00:28:41;25.13;;;12.65;;
74124;SDS011;62475;52.192;5.396;2023-04-21T00:31:06;26.13;;;13.03;;
74124;SDS011;62475;52.192;5.396;2023-04-21T00:33:31;25.40;;;12.02;;
74124;SDS011;62475;52.192;5.396;2023-04-21T00:35:57;28.02;;;12.75;;
74124;SDS011;62475;52.192;5.396;2023-04-21T00:38:23;28.63;;;12.18;;
74124;SDS011;62475;52.192;5.396;2023-04-21T00:40:48;30.90;;;14.63;;
74124;SDS011;62475;52.192;5.396;2023-04-21T00:43:14;25.85;;;13.93;;
74124;SDS011;62475;52.192;5.396;2023-04-21T00:45:39;28.40;;;13.15;;
74124;SDS011;62475;52.192;5.396;2023-04-21T00:48:04;32.35;;;15.77;;
74124;SDS011;62475;52.192;5.396;2023-04-21T00:50:30;31.27;;;15.40;;
74124;SDS011;62475;52.192;5.396;2023-04-21T00:52:56;28.83;;;12.93;;
74124;SDS011;62475;52.192;5.396;2023-04-21T00:55:22;33.75;;;15.10;;
74124;SDS011;62475;52.192;5.396;2023-04-21T00:57:48;41.05;;;17.00;;
74124;SDS011;62475;52.192;5.396;2023-04-21T01:00:16;34.28;;;16.48;;
74124;SDS011;62475;52.192;5.396;2023-04-21T01:02:41;36.67;;;15.60;;
74124;SDS011;62475;52.192;5.396;2023-04-21T01:05:09;36.30;;;16.48;;
74124;SDS011;62475;52.192;5.396;2023-04-21T01:07:35;38.85;;;16.45;;
74124;SDS011;62475;52.192;5.396;2023-04-21T01:10:01;40.58;;;17.35;;
74124;SDS011;62475;52.192;5.396;2023-04-21T01:12:27;37.55;;;16.45;;
74124;SDS011;62475;52.192;5.396;2023-04-21T01:14:53;41.70;;;16.92;;
74124;SDS011;62475;52.192;5.396;2023-04-21T01:17:19;39.75;;;17.88;;
74124;SDS011;62475;52.192;5.396;2023-04-21T01:19:44;40.08;;;17.75;;
74124;SDS011;62475;52.192;5.396;2023-04-21T01:22:10;39.83;;;17.67;;
74124;SDS011;62475;52.192;5.396;2023-04-21T01:24:40;46.15;;;19.13;;
74124;SDS011;62475;52.192;5.396;2023-04-21T01:27:08;47.50;;;16.65;;
74124;SDS011;62475;52.192;5.396;2023-04-21T01:29:35;40.53;;;18.45;;
74124;SDS011;62475;52.192;5.396;2023-04-21T01:32:07;50.08;;;19.55;;
74124;SDS011;62475;52.192;5.396;2023-04-21T01:34:37;46.58;;;20.40;;
74124;SDS011;62475;52.192;5.396;2023-04-21T01:37:06;46.45;;;19.88;;
74124;SDS011;62475;52.192;5.396;2023-04-21T01:39:42;46.72;;;19.30;;
74124;SDS011;62475;52.192;5.396;2023-04-21T01:42:09;49.80;;;19.02;;
74124;SDS011;62475;52.192;5.396;2023-04-21T01:44:35;48.78;;;18.98;;
74124;SDS011;62475;52.192;5.396;2023-04-21T01:47:01;48.85;;;20.42;;
74124;SDS011;62475;52.192;5.396;2023-04-21T01:49:26;54.10;;;20.15;;
74124;SDS011;62475;52.192;5.396;2023-04-21T01:51:52;52.38;;;19.70;;
74124;SDS011;62475;52.192;5.396;2023-04-21T01:54:18;45.00;;;19.42;;
74124;SDS011;62475;52.192;5.396;2023-04-21T01:56:43;42.20;;;18.05;;
74124;SDS011;62475;52.192;5.396;2023-04-21T01:59:09;43.90;;;17.38;;
74124;SDS011;62475;52.192;5.396;2023-04-21T02:01:36;45.65;;;18.65;;
74124;SDS011;62475;52.192;5.396;2023-04-21T02:04:02;51.20;;;20.20;;
74124;SDS011;62475;52.192;5.396;2023-04-21T02:06:28;47.53;;;19.10;;
74124;SDS011;62475;52.192;5.396;2023-04-21T02:08:55;48.45;;;20.50;;
74124;SDS011;62475;52.192;5.396;2023-04-21T02:11:20;53.60;;;19.25;;
74124;SDS011;62475;52.192;5.396;2023-04-21T02:13:46;51.28;;;20.02;;
74124;SDS011;62475;52.192;5.396;2023-04-21T02:16:11;60.97;;;21.30;;
74124;SDS011;62475;52.192;5.396;2023-04-21T02:18:36;59.72;;;22.42;;
74124;SDS011;62475;52.192;5.396;2023-04-21T02:21:04;49.45;;;19.50;;
74124;SDS011;62475;52.192;5.396;2023-04-21T02:23:30;50.63;;;21.23;;
74124;SDS011;62475;52.192;5.396;2023-04-21T02:25:55;54.30;;;20.77;;
74124;SDS011;62475;52.192;5.396;2023-04-21T02:28:21;50.72;;;19.92;;
74124;SDS011;62475;52.192;5.396;2023-04-21T02:30:47;57.50;;;21.25;;
74124;SDS011;62475;52.192;5.396;2023-04-21T02:33:12;49.95;;;20.23;;
74124;SDS011;62475;52.192;5.396;2023-04-21T02:35:38;57.25;;;22.52;;
74124;SDS011;62475;52.192;5.396;2023-04-21T02:38:03;50.15;;;21.27;;
74124;SDS011;62475;52.192;5.396;2023-04-21T02:40:31;55.60;;;20.60;;
74124;SDS011;62475;52.192;5.396;2023-04-21T02:42:56;56.80;;;22.17;;
74124;SDS011;62475;52.192;5.396;2023-04-21T02:45:22;51.83;;;20.80;;
74124;SDS011;62475;52.192;5.396;2023-04-21T02:47:47;54.95;;;21.05;;
74124;SDS011;62475;52.192;5.396;2023-04-21T02:50:12;57.10;;;21.48;;
74124;SDS011;62475;52.192;5.396;2023-04-21T02:52:38;53.63;;;21.10;;
74124;SDS011;62475;52.192;5.396;2023-04-21T02:55:03;58.23;;;21.93;;
74124;SDS011;62475;52.192;5.396;2023-04-21T02:57:30;59.55;;;22.60;;
74124;SDS011;62475;52.192;5.396;2023-04-21T02:59:55;51.90;;;21.55;;
74124;SDS011;62475;52.192;5.396;2023-04-21T03:02:21;54.53;;;21.17;;
74124;SDS011;62475;52.192;5.396;2023-04-21T03:04:46;49.10;;;19.02;;
74124;SDS011;62475;52.192;5.396;2023-04-21T03:07:13;61.38;;;22.55;;
74124;SDS011;62475;52.192;5.396;2023-04-21T03:09:38;59.47;;;20.83;;
74124;SDS011;62475;52.192;5.396;2023-04-21T03:12:04;57.42;;;22.27;;
74124;SDS011;62475;52.192;5.396;2023-04-21T03:14:30;61.78;;;21.60;;
74124;SDS011;62475;52.192;5.396;2023-04-21T03:16:55;58.28;;;21.85;;
74124;SDS011;62475;52.192;5.396;2023-04-21T03:19:20;60.22;;;20.52;;
74124;SDS011;62475;52.192;5.396;2023-04-21T03:21:46;61.20;;;22.20;;
74124;SDS011;62475;52.192;5.396;2023-04-21T03:24:11;68.95;;;23.50;;
74124;SDS011;62475;52.192;5.396;2023-04-21T03:26:37;62.75;;;21.67;;
74124;SDS011;62475;52.192;5.396;2023-04-21T03:29:04;76.18;;;23.38;;
74124;SDS011;62475;52.192;5.396;2023-04-21T03:31:29;64.10;;;23.17;;
74124;SDS011;62475;52.192;5.396;2023-04-21T03:33:55;61.55;;;21.95;;
74124;SDS011;62475;52.192;5.396;2023-04-21T03:36:21;59.55;;;22.88;;
74124;SDS011;62475;52.192;5.396;2023-04-21T03:38:46;60.22;;;21.52;;
74124;SDS011;62475;52.192;5.396;2023-04-21T03:41:11;61.75;;;23.30;;
74124;SDS011;62475;52.192;5.396;2023-04-21T03:43:37;60.77;;;21.23;;
74124;SDS011;62475;52.192;5.396;2023-04-21T03:46:02;66.90;;;23.60;;
74124;SDS011;62475;52.192;5.396;2023-04-21T03:48:27;57.67;;;21.52;;
74124;SDS011;62475;52.192;5.396;2023-04-21T03:50:53;79.10;;;25.98;;
74124;SDS011;62475;52.192;5.396;2023-04-21T03:53:18;66.00;;;22.80;;
74124;SDS011;62475;52.192;5.396;2023-04-21T03:55:44;66.32;;;22.80;;
74124;SDS011;62475;52.192;5.396;2023-04-21T03:58:13;61.90;;;22.80;;
74124;SDS011;62475;52.192;5.396;2023-04-21T04:00:39;64.88;;;23.95;;
74124;SDS011;62475;52.192;5.396;2023-04-21T04:03:04;63.42;;;22.27;;
74124;SDS011;62475;52.192;5.396;2023-04-21T04:05:31;59.75;;;21.17;;
74124;SDS011;62475;52.192;5.396;2023-04-21T04:07:56;62.83;;;22.92;;
74124;SDS011;62475;52.192;5.396;2023-04-21T04:10:21;61.45;;;21.48;;
74124;SDS011;62475;52.192;5.396;2023-04-21T04:12:47;64.10;;;21.40;;
74124;SDS011;62475;52.192;5.396;2023-04-21T04:15:12;64.72;;;23.50;;
74124;SDS011;62475;52.192;5.396;2023-04-21T04:17:38;61.78;;;22.85;;
74124;SDS011;62475;52.192;5.396;2023-04-21T04:20:04;57.25;;;22.90;;
74124;SDS011;62475;52.192;5.396;2023-04-21T04:22:31;58.30;;;21.75;;
74124;SDS011;62475;52.192;5.396;2023-04-21T04:24:57;68.63;;;22.88;;
74124;SDS011;62475;52.192;5.396;2023-04-21T04:27:23;62.00;;;21.33;;
74124;SDS011;62475;52.192;5.396;2023-04-21T04:29:49;60.50;;;21.60;;
74124;SDS011;62475;52.192;5.396;2023-04-21T04:32:14;64.57;;;23.38;;
74124;SDS011;62475;52.192;5.396;2023-04-21T04:34:39;67.97;;;22.73;;
74124;SDS011;62475;52.192;5.396;2023-04-21T04:37:05;50.92;;;21.15;;
74124;SDS011;62475;52.192;5.396;2023-04-21T04:39:30;60.65;;;21.77;;
74124;SDS011;62475;52.192;5.396;2023-04-21T04:41:56;64.78;;;23.63;;
74124;SDS011;62475;52.192;5.396;2023-04-21T04:44:21;66.65;;;24.67;;
74124;SDS011;62475;52.192;5.396;2023-04-21T04:46:49;64.93;;;23.48;;
74124;SDS011;62475;52.192;5.396;2023-04-21T04:49:15;63.30;;;24.73;;
74124;SDS011;62475;52.192;5.396;2023-04-21T04:51:40;60.17;;;23.83;;
74124;SDS011;62475;52.192;5.396;2023-04-21T04:54:05;59.33;;;24.35;;
74124;SDS011;62475;52.192;5.396;2023-04-21T04:56:31;58.17;;;23.08;;
74124;SDS011;62475;52.192;5.396;2023-04-21T04:58:56;62.88;;;23.65;;
74124;SDS011;62475;52.192;5.396;2023-04-21T05:01:22;53.92;;;22.33;;
74124;SDS011;62475;52.192;5.396;2023-04-21T05:03:53;62.75;;;25.25;;
74124;SDS011;62475;52.192;5.396;2023-04-21T05:06:19;61.20;;;24.63;;
74124;SDS011;62475;52.192;5.396;2023-04-21T05:08:44;56.95;;;25.30;;
74124;SDS011;62475;52.192;5.396;2023-04-21T05:11:10;57.25;;;24.70;;
74124;SDS011;62475;52.192;5.396;2023-04-21T05:13:35;49.63;;;22.13;;
74124;SDS011;62475;52.192;5.396;2023-04-21T05:16:01;61.05;;;23.90;;
74124;SDS011;62475;52.192;5.396;2023-04-21T05:18:26;56.53;;;22.75;;
74124;SDS011;62475;52.192;5.396;2023-04-21T05:20:52;52.20;;;22.40;;
74124;SDS011;62475;52.192;5.396;2023-04-21T05:23:18;57.72;;;25.42;;
74124;SDS011;62475;52.192;5.396;2023-04-21T05:25:43;57.85;;;23.58;;
74124;SDS011;62475;52.192;5.396;2023-04-21T05:28:08;54.20;;;23.08;;
74124;SDS011;62475;52.192;5.396;2023-04-21T05:30:34;43.67;;;21.30;;
74124;SDS011;62475;52.192;5.396;2023-04-21T05:32:59;62.45;;;25.00;;
74124;SDS011;62475;52.192;5.396;2023-04-21T05:35:25;52.00;;;23.55;;
74124;SDS011;62475;52.192;5.396;2023-04-21T05:37:50;60.70;;;22.65;;
74124;SDS011;62475;52.192;5.396;2023-04-21T05:40:15;50.00;;;22.85;;
74124;SDS011;62475;52.192;5.396;2023-04-21T05:42:41;41.00;;;22.48;;
74124;SDS011;62475;52.192;5.396;2023-04-21T05:45:06;55.55;;;24.02;;
74124;SDS011;62475;52.192;5.396;2023-04-21T05:47:32;54.13;;;23.80;;
74124;SDS011;62475;52.192;5.396;2023-04-21T05:49:57;50.22;;;23.73;;
74124;SDS011;62475;52.192;5.396;2023-04-21T05:52:22;38.47;;;17.90;;
74124;SDS011;62475;52.192;5.396;2023-04-21T05:54:48;58.65;;;25.75;;
74124;SDS011;62475;52.192;5.396;2023-04-21T05:57:13;52.97;;;24.65;;
74124;SDS011;62475;52.192;5.396;2023-04-21T05:59:40;50.50;;;21.88;;
74124;SDS011;62475;52.192;5.396;2023-04-21T06:02:05;58.53;;;25.98;;
74124;SDS011;62475;52.192;5.396;2023-04-21T06:04:31;46.20;;;20.25;;
74124;SDS011;62475;52.192;5.396;2023-04-21T06:06:56;48.35;;;23.38;;
74124;SDS011;62475;52.192;5.396;2023-04-21T06:09:22;52.15;;;22.02;;
74124;SDS011;62475;52.192;5.396;2023-04-21T06:11:47;56.88;;;25.98;;
74124;SDS011;62475;52.192;5.396;2023-04-21T06:14:14;38.30;;;19.83;;
74124;SDS011;62475;52.192;5.396;2023-04-21T06:16:39;42.75;;;19.23;;
74124;SDS011;62475;52.192;5.396;2023-04-21T06:19:06;45.97;;;23.00;;
74124;SDS011;62475;52.192;5.396;2023-04-21T06:21:31;50.25;;;23.85;;
74124;SDS011;62475;52.192;5.396;2023-04-21T06:23:57;53.35;;;24.90;;
74124;SDS011;62475;52.192;5.396;2023-04-21T06:26:22;50.67;;;24.40;;
74124;SDS011;62475;52.192;5.396;2023-04-21T06:28:47;52.33;;;23.47;;
74124;SDS011;62475;52.192;5.396;2023-04-21T06:31:13;47.88;;;23.55;;
74124;SDS011;62475;52.192;5.396;2023-04-21T06:33:39;53.35;;;24.73;;
74124;SDS011;62475;52.192;5.396;2023-04-21T06:36:05;47.60;;;22.05;;
74124;SDS011;62475;52.192;5.396;2023-04-21T06:38:31;53.50;;;24.85;;
74124;SDS011;62475;52.192;5.396;2023-04-21T06:40:56;48.42;;;23.65;;
74124;SDS011;62475;52.192;5.396;2023-04-21T06:43:22;50.30;;;23.70;;
74124;SDS011;62475;52.192;5.396;2023-04-21T06:45:50;48.75;;;22.77;;
74124;SDS011;62475;52.192;5.396;2023-04-21T06:48:15;53.40;;;24.90;;
74124;SDS011;62475;52.192;5.396;2023-04-21T06:50:40;53.17;;;21.40;;
74124;SDS011;62475;52.192;5.396;2023-04-21T06:53:08;39.00;;;17.02;;
74124;SDS011;62475;52.192;5.396;2023-04-21T06:55:35;48.90;;;23.83;;
74124;SDS011;62475;52.192;5.396;2023-04-21T06:58:00;52.80;;;26.30;;
74124;SDS011;62475;52.192;5.396;2023-04-21T07:00:25;51.28;;;25.20;;
74124;SDS011;62475;52.192;5.396;2023-04-21T07:02:51;51.85;;;25.92;;
74124;SDS011;62475;52.192;5.396;2023-04-21T07:05:16;52.42;;;25.77;;
74124;SDS011;62475;52.192;5.396;2023-04-21T07:07:42;49.08;;;23.10;;
74124;SDS011;62475;52.192;5.396;2023-04-21T07:10:07;41.78;;;21.95;;
74124;SDS011;62475;52.192;5.396;2023-04-21T07:12:33;51.78;;;23.58;;
74124;SDS011;62475;52.192;5.396;2023-04-21T07:14:58;49.70;;;23.70;;
74124;SDS011;62475;52.192;5.396;2023-04-21T07:17:23;47.92;;;22.40;;
74124;SDS011;62475;52.192;5.396;2023-04-21T07:19:49;43.05;;;22.45;;
74124;SDS011;62475;52.192;5.396;2023-04-21T07:22:14;44.67;;;21.75;;
74124;SDS011;62475;52.192;5.396;2023-04-21T07:24:40;41.83;;;22.35;;
74124;SDS011;62475;52.192;5.396;2023-04-21T07:27:05;42.75;;;23.90;;
74124;SDS011;62475;52.192;5.396;2023-04-21T07:29:30;38.83;;;20.45;;
74124;SDS011;62475;52.192;5.396;2023-04-21T07:31:56;39.20;;;21.77;;
74124;SDS011;62475;52.192;5.396;2023-04-21T07:34:22;42.38;;;22.55;;
74124;SDS011;62475;52.192;5.396;2023-04-21T07:36:48;40.95;;;21.35;;
74124;SDS011;62475;52.192;5.396;2023-04-21T07:39:15;41.13;;;21.45;;
74124;SDS011;62475;52.192;5.396;2023-04-21T07:41:40;41.72;;;21.50;;
74124;SDS011;62475;52.192;5.396;2023-04-21T07:44:05;38.60;;;20.47;;
74124;SDS011;62475;52.192;5.396;2023-04-21T07:46:31;40.73;;;21.07;;
74124;SDS011;62475;52.192;5.396;2023-04-21T07:48:57;40.20;;;21.60;;
74124;SDS011;62475;52.192;5.396;2023-04-21T07:51:23;44.60;;;22.05;;
74124;SDS011;62475;52.192;5.396;2023-04-21T07:53:49;39.55;;;21.83;;
74124;SDS011;62475;52.192;5.396;2023-04-21T07:56:15;33.50;;;18.75;;
74124;SDS011;62475;52.192;5.396;2023-04-21T07:58:40;38.67;;;21.45;;
74124;SDS011;62475;52.192;5.396;2023-04-21T08:01:06;40.47;;;21.85;;
74124;SDS011;62475;52.192;5.396;2023-04-21T08:03:31;35.58;;;20.33;;
74124;SDS011;62475;52.192;5.396;2023-04-21T08:05:57;35.08;;;20.85;;
74124;SDS011;62475;52.192;5.396;2023-04-21T08:08:22;39.17;;;21.83;;
74124;SDS011;62475;52.192;5.396;2023-04-21T08:10:47;35.97;;;21.63;;
74124;SDS011;62475;52.192;5.396;2023-04-21T08:13:13;40.47;;;23.23;;
74124;SDS011;62475;52.192;5.396;2023-04-21T08:15:38;35.92;;;19.60;;
74124;SDS011;62475;52.192;5.396;2023-04-21T08:18:04;36.92;;;21.10;;
74124;SDS011;62475;52.192;5.396;2023-04-21T08:20:29;38.47;;;22.45;;
74124;SDS011;62475;52.192;5.396;2023-04-21T08:22:54;41.88;;;22.10;;
74124;SDS011;62475;52.192;5.396;2023-04-21T08:25:20;37.58;;;20.70;;
74124;SDS011;62475;52.192;5.396;2023-04-21T08:27:45;34.72;;;20.73;;
74124;SDS011;62475;52.192;5.396;2023-04-21T08:30:11;37.45;;;21.02;;
74124;SDS011;62475;52.192;5.396;2023-04-21T08:32:37;37.42;;;22.27;;
74124;SDS011;62475;52.192;5.396;2023-04-21T08:35:02;40.05;;;22.00;;
74124;SDS011;62475;52.192;5.396;2023-04-21T08:37:28;40.72;;;20.75;;
